createdAt,value
2019-03-17T00:01:22.728Z,99.90
2019-03-17T00:03:26.363Z,99.90
2019-03-17T00:05:29.300Z,99.90
2019-03-17T00:07:32.922Z,99.90
2019-03-17T00:09:35.725Z,99.90
2019-03-17T00:11:39.285Z,99.90
2019-03-17T00:13:42.066Z,99.90
2019-03-17T00:15:45.811Z,99.90
2019-03-17T00:17:49.425Z,99.90
2019-03-17T00:19:52.215Z,99.90
2019-03-17T00:21:55.853Z,99.90
2019-03-17T00:23:58.625Z,99.90
2019-03-17T00:26:02.186Z,99.90
2019-03-17T00:28:05.034Z,99.90
2019-03-17T00:30:11.344Z,99.90
2019-03-17T00:32:14.912Z,99.90
2019-03-17T00:34:17.699Z,99.90
2019-03-17T00:36:21.337Z,99.90
2019-03-17T00:38:24.146Z,99.90
2019-03-17T00:40:27.727Z,99.90
2019-03-17T00:42:30.526Z,99.90
2019-03-17T00:44:34.136Z,99.90
2019-03-17T00:46:36.984Z,99.90
2019-03-17T00:48:40.560Z,99.90
2019-03-17T00:50:43.421Z,99.90
2019-03-17T00:52:46.987Z,99.50
2019-03-17T00:54:49.795Z,99.30
2019-03-17T00:56:53.355Z,99.50
2019-03-17T00:58:56.175Z,99.90
2019-03-17T01:00:59.749Z,99.70
2019-03-17T01:03:02.588Z,99.70
2019-03-17T01:05:06.580Z,99.90
2019-03-17T01:07:10.156Z,99.80
2019-03-17T01:09:12.938Z,99.90
2019-03-17T01:11:16.497Z,99.90
2019-03-17T01:13:19.362Z,99.80
2019-03-17T01:15:22.995Z,99.90
2019-03-17T01:17:25.775Z,99.60
2019-03-17T01:19:29.384Z,99.70
2019-03-17T01:21:32.135Z,99.50
2019-03-17T01:23:35.746Z,99.40
2019-03-17T01:25:38.519Z,99.20
2019-03-17T01:27:42.343Z,99.20
2019-03-17T01:29:45.837Z,99.20
2019-03-17T01:31:48.614Z,99.20
2019-03-17T01:33:52.218Z,99.10
2019-03-17T01:35:54.991Z,99.20
2019-03-17T01:37:58.651Z,99.10
2019-03-17T01:40:02.219Z,99.30
2019-03-17T01:42:05.062Z,99.50
2019-03-17T01:44:08.639Z,99.70
2019-03-17T01:46:11.419Z,99.60
2019-03-17T01:48:15.005Z,99.90
2019-03-17T01:50:17.792Z,99.90
2019-03-17T01:52:21.343Z,99.90
2019-03-17T01:54:24.134Z,99.90
2019-03-17T01:56:27.696Z,99.90
2019-03-17T01:58:30.511Z,99.90
2019-03-17T02:00:34.306Z,99.90
2019-03-17T02:02:37.899Z,99.90
2019-03-17T02:04:40.687Z,99.90
2019-03-17T02:06:44.396Z,99.90
2019-03-17T02:08:47.971Z,99.90
2019-03-17T02:10:50.759Z,99.90
2019-03-17T02:12:54.367Z,99.90
2019-03-17T02:14:57.151Z,99.90
2019-03-17T02:17:00.721Z,99.90
2019-03-17T02:19:03.570Z,99.90
2019-03-17T02:21:07.200Z,99.90
2019-03-17T02:23:10.055Z,99.90
2019-03-17T02:25:13.576Z,99.90
2019-03-17T02:27:16.356Z,99.90
2019-03-17T02:29:19.922Z,99.90
2019-03-17T02:31:22.711Z,99.90
2019-03-17T02:33:26.297Z,99.90
2019-03-17T02:35:38.895Z,99.90
2019-03-17T02:37:34.401Z,99.90
2019-03-17T02:39:37.296Z,99.90
2019-03-17T02:41:40.873Z,99.90
2019-03-17T02:43:43.690Z,99.80
2019-03-17T02:45:47.273Z,99.80
2019-03-17T02:47:50.073Z,99.60
2019-03-17T02:49:53.743Z,99.30
2019-03-17T02:51:57.302Z,99.30
2019-03-17T02:54:00.145Z,99.40
2019-03-17T02:56:03.744Z,99.40
2019-03-17T02:58:07.344Z,99.50
2019-03-17T03:00:10.605Z,98.80
2019-03-17T03:02:14.236Z,98.90
2019-03-17T03:04:17.008Z,99.00
2019-03-17T03:06:20.604Z,98.90
2019-03-17T03:08:23.382Z,99.00
2019-03-17T03:10:27.029Z,98.90
2019-03-17T03:12:30.614Z,99.20
2019-03-17T03:14:33.467Z,98.80
2019-03-17T03:16:37.331Z,99.00
2019-03-17T03:18:40.910Z,99.00
2019-03-17T03:20:43.689Z,99.10
2019-03-17T03:22:47.366Z,98.90
2019-03-17T03:24:50.934Z,99.60
2019-03-17T03:26:53.759Z,99.30
2019-03-17T03:28:57.331Z,99.10
2019-03-17T03:31:00.139Z,98.80
2019-03-17T03:33:03.882Z,98.90
2019-03-17T03:35:09.158Z,98.90
2019-03-17T03:37:12.720Z,98.90
2019-03-17T03:39:15.528Z,98.80
2019-03-17T03:41:19.082Z,98.70
2019-03-17T03:43:21.905Z,99.00
2019-03-17T03:45:25.516Z,98.40
2019-03-17T03:47:28.302Z,98.60
2019-03-17T03:49:31.865Z,98.80
2019-03-17T03:51:34.679Z,98.60
2019-03-17T03:53:38.254Z,98.70
2019-03-17T03:55:42.425Z,99.00
2019-03-17T03:57:45.396Z,98.70
2019-03-17T03:59:49.129Z,99.00
2019-03-17T04:01:52.849Z,98.50
2019-03-17T04:03:56.492Z,98.70
2019-03-17T04:06:00.075Z,98.60
2019-03-17T04:08:02.895Z,98.70
2019-03-17T04:10:08.694Z,99.00
2019-03-17T04:12:12.279Z,98.80
2019-03-17T04:14:15.069Z,98.80
2019-03-17T04:16:18.643Z,98.80
2019-03-17T04:18:21.441Z,99.10
2019-03-17T04:20:25.038Z,99.30
2019-03-17T04:22:27.938Z,99.20
2019-03-17T04:24:31.560Z,99.30
2019-03-17T04:26:34.427Z,99.20
2019-03-17T04:28:37.973Z,99.30
2019-03-17T04:30:40.889Z,99.50
2019-03-17T04:32:44.450Z,99.50
2019-03-17T04:34:47.266Z,99.70
2019-03-17T04:36:50.862Z,99.80
2019-03-17T04:38:53.642Z,99.80
2019-03-17T04:40:57.205Z,99.70
2019-03-17T04:43:00.017Z,99.50
2019-03-17T04:45:03.817Z,99.60
2019-03-17T04:47:07.519Z,99.80
2019-03-17T04:49:11.076Z,99.40
2019-03-17T04:51:13.879Z,99.20
2019-03-17T04:53:17.488Z,99.10
2019-03-17T04:55:20.272Z,99.20
2019-03-17T04:57:23.924Z,99.20
2019-03-17T04:59:27.565Z,99.10
2019-03-17T05:01:31.156Z,99.10
2019-03-17T05:03:33.944Z,99.10
2019-03-17T05:05:37.519Z,99.30
2019-03-17T05:07:40.327Z,99.60
2019-03-17T05:09:43.988Z,99.10
2019-03-17T05:11:47.592Z,98.80
2019-03-17T05:13:50.327Z,98.90
2019-03-17T05:15:53.982Z,98.80
2019-03-17T05:17:57.577Z,98.80
2019-03-17T05:20:00.363Z,99.00
2019-03-17T05:22:04.011Z,99.10
2019-03-17T05:24:07.610Z,99.40
2019-03-17T05:26:10.386Z,99.20
2019-03-17T05:28:13.961Z,99.50
2019-03-17T05:30:16.756Z,99.50
2019-03-17T05:32:20.408Z,99.60
2019-03-17T05:34:24.005Z,99.90
2019-03-17T05:36:26.799Z,99.90
2019-03-17T05:38:30.359Z,99.90
2019-03-17T05:40:33.175Z,99.90
2019-03-17T05:42:36.738Z,99.90
2019-03-17T05:44:39.611Z,99.90
2019-03-17T05:46:43.254Z,99.90
2019-03-17T05:48:46.862Z,99.90
2019-03-17T05:50:49.652Z,99.70
2019-03-17T05:52:53.239Z,99.60
2019-03-17T05:54:56.034Z,99.60
2019-03-17T05:56:59.613Z,99.30
2019-03-17T05:59:02.507Z,99.40
2019-03-17T06:01:06.112Z,99.10
2019-03-17T06:03:08.888Z,99.30
2019-03-17T06:05:12.547Z,99.40
2019-03-17T06:07:19.011Z,99.30
2019-03-17T06:09:21.378Z,99.20
2019-03-17T06:11:24.188Z,99.00
2019-03-17T06:13:27.749Z,98.90
2019-03-17T06:15:30.554Z,99.00
2019-03-17T06:17:34.107Z,98.90
2019-03-17T06:19:36.904Z,99.00
2019-03-17T06:21:42.731Z,98.60
2019-03-17T06:23:46.378Z,98.80
2019-03-17T06:25:50.008Z,98.70
2019-03-17T06:27:53.571Z,98.70
2019-03-17T06:29:56.372Z,98.80
2019-03-17T06:32:00.005Z,98.90
2019-03-17T06:34:03.611Z,98.50
2019-03-17T06:36:06.436Z,98.70
2019-03-17T06:38:10.021Z,98.90
2019-03-17T06:40:13.195Z,99.00
2019-03-17T06:42:16.772Z,98.60
2019-03-17T06:44:19.570Z,98.40
2019-03-17T06:46:23.182Z,98.40
2019-03-17T06:48:25.960Z,98.40
2019-03-17T06:50:29.531Z,98.20
2019-03-17T06:52:32.334Z,98.40
2019-03-17T06:54:35.900Z,98.70
2019-03-17T06:56:38.694Z,98.70
2019-03-17T06:58:42.358Z,98.10
2019-03-17T07:00:45.460Z,98.10
2019-03-17T07:02:49.112Z,98.10
2019-03-17T07:04:54.109Z,98.10
2019-03-17T07:06:57.852Z,98.10
2019-03-17T07:09:00.674Z,98.40
2019-03-17T07:11:04.305Z,98.00
2019-03-17T07:13:07.081Z,98.30
2019-03-17T07:15:13.627Z,98.20
2019-03-17T07:17:19.339Z,98.00
2019-03-17T07:19:22.422Z,97.50
2019-03-17T07:21:25.205Z,97.70
2019-03-17T07:23:28.804Z,97.20
2019-03-17T07:25:31.614Z,97.30
2019-03-17T07:27:35.208Z,97.30
2019-03-17T07:29:37.983Z,96.70
2019-03-17T07:31:41.547Z,97.00
2019-03-17T07:33:44.900Z,96.40
2019-03-17T07:35:48.515Z,96.70
2019-03-17T07:37:57.012Z,96.30
2019-03-17T07:39:57.394Z,96.20
2019-03-17T07:42:00.258Z,95.70
2019-03-17T07:44:03.887Z,96.10
2019-03-17T07:46:06.704Z,96.40
2019-03-17T07:48:10.335Z,95.80
2019-03-17T07:50:13.292Z,96.10
2019-03-17T07:52:16.225Z,96.20
2019-03-17T07:54:18.996Z,96.10
2019-03-17T07:56:21.882Z,96.00
2019-03-17T07:58:24.676Z,96.10
2019-03-17T08:00:32.157Z,96.50
2019-03-17T08:02:31.958Z,95.80
2019-03-17T08:04:42.470Z,95.60
2019-03-17T08:06:39.287Z,95.60
2019-03-17T08:08:42.245Z,95.20
2019-03-17T08:10:45.215Z,93.80
2019-03-17T08:12:48.055Z,93.20
2019-03-17T08:14:50.860Z,93.80
2019-03-17T08:16:53.644Z,93.00
2019-03-17T08:18:56.502Z,93.50
2019-03-17T08:20:59.316Z,92.80
2019-03-17T08:23:02.118Z,92.70
2019-03-17T08:25:06.682Z,92.10
2019-03-17T08:27:10.225Z,92.00
2019-03-17T08:29:13.048Z,92.00
2019-03-17T08:31:15.938Z,90.80
2019-03-17T08:33:18.718Z,90.70
2019-03-17T08:35:21.540Z,90.60
2019-03-17T08:37:24.323Z,90.80
2019-03-17T08:39:27.113Z,91.20
2019-03-17T08:41:29.895Z,89.70
2019-03-17T08:43:32.704Z,90.40
2019-03-17T08:45:35.506Z,90.30
2019-03-17T08:47:38.302Z,90.30
2019-03-17T08:49:41.122Z,90.30
2019-03-17T08:51:43.912Z,90.50
2019-03-17T08:53:46.692Z,86.60
2019-03-17T08:55:49.517Z,83.60
2019-03-17T08:57:52.279Z,83.60
2019-03-17T08:59:55.110Z,85.90
2019-03-17T09:01:57.913Z,84.60
2019-03-17T09:04:00.693Z,80.20
2019-03-17T09:06:03.668Z,80.10
2019-03-17T09:08:06.486Z,80.90
2019-03-17T09:10:12.765Z,79.80
2019-03-17T09:12:15.586Z,78.70
2019-03-17T09:14:18.413Z,80.60
2019-03-17T09:16:21.268Z,80.30
2019-03-17T09:18:26.832Z,80.40
2019-03-17T09:20:28.688Z,76.80
2019-03-17T09:22:31.498Z,76.50
2019-03-17T09:24:34.305Z,75.80
2019-03-17T09:26:37.085Z,76.60
2019-03-17T09:28:39.888Z,72.50
2019-03-17T09:30:42.703Z,75.30
2019-03-17T09:32:45.483Z,74.20
2019-03-17T09:34:48.272Z,71.60
2019-03-17T09:36:51.083Z,72.50
2019-03-17T09:38:53.883Z,69.10
2019-03-17T09:40:56.706Z,70.30
2019-03-17T09:42:59.510Z,66.50
2019-03-17T09:45:02.288Z,65.30
2019-03-17T09:47:05.175Z,62.90
2019-03-17T09:49:08.042Z,64.10
2019-03-17T09:51:10.831Z,60.50
2019-03-17T09:53:13.607Z,60.40
2019-03-17T09:55:16.461Z,61.60
2019-03-17T09:57:19.240Z,59.90
2019-03-17T09:59:22.056Z,61.90
2019-03-17T10:01:24.848Z,61.70
2019-03-17T10:03:27.630Z,55.80
2019-03-17T10:05:30.448Z,58.80
2019-03-17T10:07:33.235Z,56.70
2019-03-17T10:09:36.037Z,56.30
2019-03-17T10:11:38.839Z,55.70
2019-03-17T10:13:41.708Z,59.00
2019-03-17T10:15:44.503Z,57.50
2019-03-17T10:17:47.354Z,58.40
2019-03-17T10:19:50.137Z,54.90
2019-03-17T10:21:52.940Z,55.00
2019-03-17T10:23:55.723Z,55.80
2019-03-17T10:25:58.534Z,52.60
2019-03-17T10:28:01.342Z,49.00
2019-03-17T10:30:05.675Z,53.00
2019-03-17T10:32:08.475Z,51.80
2019-03-17T10:34:11.258Z,52.60
2019-03-17T10:36:14.125Z,49.80
2019-03-17T10:38:16.980Z,48.30
2019-03-17T10:40:21.346Z,51.70
2019-03-17T10:42:24.125Z,50.40
2019-03-17T10:44:26.916Z,50.90
2019-03-17T10:46:29.710Z,51.50
2019-03-17T10:48:32.580Z,50.30
2019-03-17T10:50:35.358Z,49.40
2019-03-17T10:52:38.199Z,47.90
2019-03-17T10:54:40.996Z,48.80
2019-03-17T10:56:43.843Z,47.60
2019-03-17T10:58:46.659Z,48.50
2019-03-17T11:00:49.537Z,49.50
2019-03-17T11:02:52.428Z,48.00
2019-03-17T11:04:55.241Z,45.70
2019-03-17T11:06:58.027Z,48.90
2019-03-17T11:09:00.835Z,45.40
2019-03-17T11:11:03.687Z,44.80
2019-03-17T11:13:06.497Z,44.60
2019-03-17T11:15:13.511Z,45.10
2019-03-17T11:17:16.447Z,42.90
2019-03-17T11:19:19.308Z,45.40
2019-03-17T11:21:22.080Z,42.60
2019-03-17T11:23:25.091Z,44.60
2019-03-17T11:25:27.876Z,43.00
2019-03-17T11:27:30.665Z,41.70
2019-03-17T11:29:33.459Z,42.20
2019-03-17T11:31:36.359Z,42.50
2019-03-17T11:33:39.154Z,42.30
2019-03-17T11:35:41.971Z,40.30
2019-03-17T11:37:44.765Z,42.70
2019-03-17T11:39:47.548Z,39.40
2019-03-17T11:41:50.345Z,39.70
2019-03-17T11:43:53.152Z,38.90
2019-03-17T11:45:55.959Z,41.50
2019-03-17T11:47:58.858Z,40.10
2019-03-17T11:50:01.672Z,40.90
2019-03-17T11:52:04.554Z,40.10
2019-03-17T11:54:07.440Z,41.70
2019-03-17T11:56:10.226Z,41.60
2019-03-17T11:58:13.037Z,41.40
2019-03-17T12:00:16.498Z,39.70
2019-03-17T12:02:26.581Z,40.20
2019-03-17T12:04:25.526Z,39.90
2019-03-17T12:06:28.321Z,41.50
2019-03-17T12:08:31.141Z,40.40
2019-03-17T12:10:33.970Z,41.70
2019-03-17T12:12:36.743Z,41.80
2019-03-17T12:14:39.631Z,39.50
2019-03-17T12:16:42.496Z,39.10
2019-03-17T12:18:45.325Z,40.60
2019-03-17T12:20:48.194Z,39.70
2019-03-17T12:22:51.069Z,39.00
2019-03-17T12:24:53.856Z,39.20
2019-03-17T12:26:56.667Z,39.70
2019-03-17T12:28:59.481Z,40.50
2019-03-17T12:31:02.320Z,39.90
2019-03-17T12:33:05.195Z,40.90
2019-03-17T12:35:08.044Z,43.40
2019-03-17T12:37:10.935Z,39.40
2019-03-17T12:39:13.739Z,39.90
2019-03-17T12:41:16.519Z,43.20
2019-03-17T12:43:19.433Z,38.10
2019-03-17T12:45:22.288Z,38.20
2019-03-17T12:47:25.093Z,38.00
2019-03-17T12:49:27.913Z,38.30
2019-03-17T12:51:30.686Z,37.20
2019-03-17T12:53:33.495Z,36.80
2019-03-17T12:55:36.286Z,38.30
2019-03-17T12:57:39.144Z,38.30
2019-03-17T12:59:41.956Z,37.40
2019-03-17T13:01:44.743Z,38.80
2019-03-17T13:03:48.875Z,40.40
2019-03-17T13:05:51.903Z,40.00
2019-03-17T13:07:54.865Z,37.90
2019-03-17T13:09:57.701Z,37.40
2019-03-17T13:12:00.483Z,38.30
2019-03-17T13:14:03.359Z,38.50
2019-03-17T13:16:06.172Z,35.70
2019-03-17T13:18:08.994Z,37.60
2019-03-17T13:20:12.694Z,37.50
2019-03-17T13:22:15.473Z,37.00
2019-03-17T13:24:18.456Z,39.70
2019-03-17T13:26:21.231Z,37.50
2019-03-17T13:28:27.021Z,39.00
2019-03-17T13:30:29.840Z,36.20
2019-03-17T13:32:32.621Z,38.30
2019-03-17T13:34:35.416Z,37.40
2019-03-17T13:36:38.327Z,37.40
2019-03-17T13:38:41.174Z,36.20
2019-03-17T13:40:43.996Z,37.40
2019-03-17T13:42:46.773Z,38.80
2019-03-17T13:44:49.611Z,36.60
2019-03-17T13:46:52.393Z,37.50
2019-03-17T13:48:55.173Z,36.90
2019-03-17T13:50:57.975Z,35.80
2019-03-17T13:53:00.788Z,38.80
2019-03-17T13:55:03.940Z,38.80
2019-03-17T13:57:06.728Z,36.00
2019-03-17T13:59:10.009Z,36.70
2019-03-17T14:01:12.810Z,37.60
2019-03-17T14:03:15.627Z,37.90
2019-03-17T14:05:18.419Z,37.60
2019-03-17T14:07:21.225Z,37.00
2019-03-17T14:09:24.031Z,37.80
2019-03-17T14:11:26.815Z,38.00
2019-03-17T14:13:29.635Z,38.20
2019-03-17T14:15:32.490Z,38.20
2019-03-17T14:17:35.273Z,38.40
2019-03-17T14:19:38.127Z,37.20
2019-03-17T14:21:41.013Z,37.50
2019-03-17T14:23:43.865Z,37.70
2019-03-17T14:25:47.110Z,37.90
2019-03-17T14:27:50.079Z,36.50
2019-03-17T14:29:52.925Z,37.10
2019-03-17T14:31:55.866Z,39.10
2019-03-17T14:33:58.672Z,37.30
2019-03-17T14:36:01.609Z,37.00
2019-03-17T14:38:05.038Z,37.70
2019-03-17T14:40:09.340Z,36.50
2019-03-17T14:42:12.115Z,36.40
2019-03-17T14:44:15.071Z,36.90
2019-03-17T14:46:17.925Z,36.90
2019-03-17T14:48:20.746Z,37.60
2019-03-17T14:50:23.896Z,38.40
2019-03-17T14:52:26.909Z,36.70
2019-03-17T14:54:29.972Z,36.70
2019-03-17T14:56:32.790Z,35.90
2019-03-17T14:58:35.600Z,37.40
2019-03-17T15:00:38.511Z,36.60
2019-03-17T15:02:41.476Z,36.20
2019-03-17T15:04:44.294Z,35.50
2019-03-17T15:06:47.085Z,36.60
2019-03-17T15:08:50.016Z,35.30
2019-03-17T15:11:04.953Z,34.70
2019-03-17T15:12:57.660Z,34.20
2019-03-17T15:15:00.412Z,35.50
2019-03-17T15:17:03.290Z,35.20
2019-03-17T15:19:06.205Z,35.50
2019-03-17T15:21:08.971Z,34.80
2019-03-17T15:23:11.859Z,35.20
2019-03-17T15:25:14.747Z,35.30
2019-03-17T15:27:17.521Z,36.00
2019-03-17T15:29:20.316Z,35.20
2019-03-17T15:31:23.129Z,35.70
2019-03-17T15:33:25.921Z,35.40
2019-03-17T15:35:28.830Z,36.10
2019-03-17T15:37:31.675Z,36.60
2019-03-17T15:39:34.548Z,36.60
2019-03-17T15:41:37.371Z,35.60
2019-03-17T15:43:40.145Z,36.60
2019-03-17T15:45:42.930Z,37.60
2019-03-17T15:47:45.808Z,38.60
2019-03-17T15:49:49.477Z,37.90
2019-03-17T15:51:52.298Z,39.30
2019-03-17T15:53:55.084Z,39.60
2019-03-17T15:55:57.998Z,40.50
2019-03-17T15:58:01.138Z,38.50
2019-03-17T16:00:05.714Z,39.40
2019-03-17T16:02:08.427Z,40.10
2019-03-17T16:04:11.357Z,40.20
2019-03-17T16:06:14.122Z,40.40
2019-03-17T16:08:16.912Z,40.20
2019-03-17T16:10:21.237Z,40.50
2019-03-17T16:12:24.056Z,39.60
2019-03-17T16:14:26.846Z,40.80
2019-03-17T16:16:29.703Z,42.10
2019-03-17T16:18:32.487Z,41.90
2019-03-17T16:20:35.281Z,42.40
2019-03-17T16:22:38.098Z,42.90
2019-03-17T16:24:40.955Z,43.30
2019-03-17T16:26:43.743Z,42.40
2019-03-17T16:28:46.640Z,43.20
2019-03-17T16:30:49.428Z,40.90
2019-03-17T16:32:52.280Z,40.50
2019-03-17T16:34:55.063Z,40.70
2019-03-17T16:36:57.842Z,40.10
2019-03-17T16:39:00.660Z,40.10
2019-03-17T16:41:03.526Z,41.70
2019-03-17T16:43:06.390Z,41.20
2019-03-17T16:45:15.601Z,40.40
2019-03-17T16:47:18.122Z,42.20
2019-03-17T16:49:20.912Z,42.20
2019-03-17T16:51:23.710Z,41.30
2019-03-17T16:53:26.568Z,39.80
2019-03-17T16:55:29.390Z,40.50
2019-03-17T16:57:32.180Z,39.50
2019-03-17T16:59:35.001Z,38.60
2019-03-17T17:01:37.856Z,40.30
2019-03-17T17:03:40.663Z,39.40
2019-03-17T17:05:43.443Z,40.00
2019-03-17T17:07:47.076Z,40.70
2019-03-17T17:09:49.922Z,41.40
2019-03-17T17:11:57.212Z,40.70
2019-03-17T17:13:57.166Z,40.60
2019-03-17T17:15:59.979Z,41.30
2019-03-17T17:18:02.904Z,42.50
2019-03-17T17:20:07.211Z,41.70
2019-03-17T17:22:10.082Z,41.40
2019-03-17T17:24:12.923Z,41.50
2019-03-17T17:26:15.715Z,41.70
2019-03-17T17:28:18.509Z,43.10
2019-03-17T17:30:21.527Z,42.10
2019-03-17T17:32:24.313Z,41.70
2019-03-17T17:34:27.102Z,41.70
2019-03-17T17:36:29.926Z,40.70
2019-03-17T17:38:32.718Z,41.80
2019-03-17T17:40:35.507Z,41.80
2019-03-17T17:42:38.316Z,43.50
2019-03-17T17:44:41.129Z,44.10
2019-03-17T17:46:43.920Z,43.20
2019-03-17T17:48:46.743Z,44.10
2019-03-17T17:50:49.523Z,46.50
2019-03-17T17:52:52.376Z,46.00
2019-03-17T17:54:55.260Z,47.40
2019-03-17T17:56:58.087Z,45.80
2019-03-17T17:59:00.905Z,46.10
2019-03-17T18:01:03.776Z,46.50
2019-03-17T18:03:06.656Z,46.70
2019-03-17T18:05:09.519Z,48.90
2019-03-17T18:07:12.295Z,48.70
2019-03-17T18:09:15.106Z,45.20
2019-03-17T18:11:17.893Z,46.00
2019-03-17T18:13:20.703Z,45.10
2019-03-17T18:15:25.049Z,46.60
2019-03-17T18:17:27.843Z,46.10
2019-03-17T18:19:30.643Z,44.80
2019-03-17T18:21:33.426Z,43.80
2019-03-17T18:23:36.261Z,43.70
2019-03-17T18:25:39.031Z,45.10
2019-03-17T18:27:41.892Z,46.10
2019-03-17T18:29:44.713Z,45.80
2019-03-17T18:31:47.493Z,45.70
2019-03-17T18:33:50.325Z,46.00
2019-03-17T18:35:53.129Z,45.10
2019-03-17T18:37:56.004Z,45.20
2019-03-17T18:39:58.814Z,53.10
2019-03-17T18:42:01.608Z,59.60
2019-03-17T18:44:04.591Z,69.20
2019-03-17T18:46:07.477Z,74.30
2019-03-17T18:48:10.286Z,78.40
2019-03-17T18:50:20.065Z,82.00
2019-03-17T18:52:18.502Z,85.00
2019-03-17T18:54:21.349Z,86.40
2019-03-17T18:56:24.158Z,87.20
2019-03-17T18:58:26.938Z,87.90
2019-03-17T19:00:29.747Z,88.50
2019-03-17T19:02:32.544Z,87.80
2019-03-17T19:04:35.330Z,88.40
2019-03-17T19:06:39.202Z,88.30
2019-03-17T19:08:41.989Z,88.30
2019-03-17T19:10:44.820Z,88.90
2019-03-17T19:12:47.886Z,89.20
2019-03-17T19:14:50.673Z,89.80
2019-03-17T19:16:53.471Z,89.90
2019-03-17T19:18:56.253Z,88.70
2019-03-17T19:20:59.064Z,89.40
2019-03-17T19:23:01.839Z,88.90
2019-03-17T19:25:06.394Z,89.10
2019-03-17T19:27:09.275Z,88.70
2019-03-17T19:29:12.078Z,89.20
2019-03-17T19:31:14.975Z,88.80
2019-03-17T19:33:17.731Z,88.60
2019-03-17T19:35:20.614Z,88.70
2019-03-17T19:37:23.435Z,89.10
2019-03-17T19:39:26.321Z,89.90
2019-03-17T19:41:29.141Z,89.60
2019-03-17T19:43:31.945Z,89.50
2019-03-17T19:45:34.756Z,90.10
2019-03-17T19:47:37.636Z,90.00
2019-03-17T19:49:40.427Z,90.00
2019-03-17T19:51:43.242Z,90.00
2019-03-17T19:53:46.074Z,89.90
2019-03-17T19:55:48.875Z,89.50
2019-03-17T19:57:51.663Z,89.80
2019-03-17T19:59:54.493Z,89.70
2019-03-17T20:01:57.311Z,89.60
2019-03-17T20:04:00.106Z,89.80
2019-03-17T20:06:02.971Z,90.10
2019-03-17T20:08:05.827Z,90.30
2019-03-17T20:10:10.114Z,90.30
2019-03-17T20:12:12.932Z,90.00
2019-03-17T20:14:15.789Z,90.10
2019-03-17T20:16:18.731Z,90.50
2019-03-17T20:18:21.493Z,90.30
2019-03-17T20:20:24.364Z,90.10
2019-03-17T20:22:27.187Z,90.20
2019-03-17T20:24:29.971Z,90.30
2019-03-17T20:26:32.744Z,90.20
2019-03-17T20:28:35.558Z,90.00
2019-03-17T20:30:38.364Z,90.00
2019-03-17T20:32:41.211Z,89.90
2019-03-17T20:34:44.003Z,90.10
2019-03-17T20:36:46.938Z,90.00
2019-03-17T20:38:49.726Z,89.60
2019-03-17T20:40:52.500Z,89.80
2019-03-17T20:42:55.291Z,89.60
2019-03-17T20:44:58.078Z,89.80
2019-03-17T20:47:00.890Z,89.40
2019-03-17T20:49:03.672Z,89.60
2019-03-17T20:51:06.491Z,90.10
2019-03-17T20:53:09.281Z,89.90
2019-03-17T20:55:12.132Z,90.00
2019-03-17T20:57:14.956Z,90.50
2019-03-17T20:59:17.753Z,90.00
2019-03-17T21:01:20.525Z,90.00
2019-03-17T21:03:23.320Z,90.10
2019-03-17T21:05:26.101Z,90.20
2019-03-17T21:07:28.972Z,91.00
2019-03-17T21:09:31.796Z,90.90
2019-03-17T21:11:34.566Z,91.50
2019-03-17T21:13:46.226Z,90.90
2019-03-17T21:15:44.920Z,90.60
2019-03-17T21:17:47.770Z,91.20
2019-03-17T21:19:50.591Z,91.10
2019-03-17T21:21:53.380Z,91.30
2019-03-17T21:23:56.208Z,91.60
2019-03-17T21:25:58.983Z,91.40
2019-03-17T21:28:01.738Z,91.70
2019-03-17T21:30:06.054Z,92.20
2019-03-17T21:32:08.866Z,91.80
2019-03-17T21:34:11.651Z,92.10
2019-03-17T21:36:14.427Z,92.10
2019-03-17T21:38:17.232Z,92.00
2019-03-17T21:40:20.093Z,92.10
2019-03-17T21:42:22.958Z,92.00
2019-03-17T21:44:25.813Z,92.30
2019-03-17T21:46:28.605Z,92.40
2019-03-17T21:48:31.444Z,92.60
2019-03-17T21:50:34.235Z,92.60
2019-03-17T21:52:37.015Z,92.70
2019-03-17T21:54:39.824Z,92.90
2019-03-17T21:56:42.669Z,93.10
2019-03-17T21:58:45.424Z,93.10
2019-03-17T22:00:48.279Z,93.10
2019-03-17T22:02:51.083Z,93.40
2019-03-17T22:04:53.861Z,93.00
2019-03-17T22:06:56.850Z,93.30
2019-03-17T22:08:59.949Z,93.20
2019-03-17T22:11:02.804Z,93.50
2019-03-17T22:13:05.621Z,93.60
2019-03-17T22:15:12.177Z,93.60
2019-03-17T22:17:14.987Z,94.00
2019-03-17T22:19:17.747Z,93.80
2019-03-17T22:21:20.559Z,93.80
2019-03-17T22:23:23.407Z,93.70
2019-03-17T22:25:26.190Z,93.90
2019-03-17T22:27:28.995Z,93.80
2019-03-17T22:29:31.783Z,94.10
2019-03-17T22:31:34.560Z,94.20
2019-03-17T22:33:37.378Z,94.00
2019-03-17T22:35:40.148Z,94.10
2019-03-17T22:37:42.956Z,94.30
2019-03-17T22:39:45.727Z,94.50
2019-03-17T22:41:48.455Z,94.50
2019-03-17T22:43:51.256Z,94.90
2019-03-17T22:45:54.080Z,95.10
2019-03-17T22:47:56.848Z,96.10
2019-03-17T22:49:59.651Z,96.10
2019-03-17T22:52:02.469Z,96.70
2019-03-17T22:54:05.261Z,96.70
2019-03-17T22:56:08.031Z,97.00
2019-03-17T22:58:10.847Z,97.20
2019-03-17T23:00:19.185Z,97.10
2019-03-17T23:02:22.062Z,97.20
2019-03-17T23:04:24.839Z,97.20
2019-03-17T23:06:27.687Z,97.50
2019-03-17T23:08:30.491Z,97.50
2019-03-17T23:10:33.273Z,97.30
2019-03-17T23:12:36.504Z,98.00
2019-03-17T23:14:39.276Z,97.80
2019-03-17T23:16:42.083Z,98.10
2019-03-17T23:18:44.894Z,98.00
2019-03-17T23:20:47.666Z,98.70
2019-03-17T23:22:50.455Z,98.40
2019-03-17T23:24:53.263Z,98.10
2019-03-17T23:26:56.051Z,98.70
2019-03-17T23:28:58.819Z,97.90
2019-03-17T23:31:01.605Z,98.00
2019-03-17T23:33:04.476Z,97.60
2019-03-17T23:35:07.430Z,98.00
2019-03-17T23:37:10.243Z,97.60
2019-03-17T23:39:13.123Z,97.90
2019-03-17T23:41:15.900Z,98.30
2019-03-17T23:43:18.711Z,97.40
2019-03-17T23:45:21.490Z,98.10
2019-03-17T23:47:24.267Z,97.80
2019-03-17T23:49:27.070Z,97.30
2019-03-17T23:51:29.851Z,97.50
2019-03-17T23:53:32.687Z,97.20
2019-03-17T23:55:35.474Z,97.50
2019-03-17T23:57:38.270Z,97.30
2019-03-17T23:59:41.069Z,97.70
